createdAt,value
2023-05-24T00:00:26.323Z,36.75
2023-05-24T00:03:31.201Z,41.25
2023-05-24T00:06:35.229Z,30.00
2023-05-24T00:09:40.091Z,39.75
2023-05-24T00:12:44.011Z,32.00
2023-05-24T00:15:47.535Z,33.75
2023-05-24T00:18:52.359Z,41.50
2023-05-24T00:21:56.165Z,40.75
2023-05-24T00:25:00.943Z,40.50
2023-05-24T00:28:04.891Z,39.50
2023-05-24T00:31:08.634Z,37.25
2023-05-24T00:34:12.322Z,44.00
2023-05-24T00:37:16.043Z,42.50
2023-05-24T00:40:21.238Z,41.25
2023-05-24T00:43:26.613Z,41.75
2023-05-24T00:46:31.589Z,47.75
2023-05-24T00:49:36.199Z,41.00
2023-05-24T00:52:40.444Z,45.00
2023-05-24T00:55:45.568Z,40.00
2023-05-24T00:58:50.624Z,36.25
2023-05-24T01:01:55.629Z,42.50
2023-05-24T01:05:00.165Z,41.00
2023-05-24T01:08:11.994Z,42.00
2023-05-24T01:11:27.690Z,37.00
2023-05-24T01:14:39.475Z,40.50
2023-05-24T01:17:53.254Z,44.25
2023-05-24T01:21:07.921Z,43.75
2023-05-24T01:24:19.804Z,40.75
2023-05-24T01:27:25.879Z,47.75
2023-05-24T01:30:30.136Z,44.33
2023-05-24T01:33:34.245Z,45.00
2023-05-24T01:36:37.670Z,50.75
2023-05-24T01:39:41.998Z,48.50
2023-05-24T01:42:50.597Z,51.25
2023-05-24T01:46:04.585Z,50.75
2023-05-24T01:49:18.256Z,48.25
2023-05-24T01:52:25.411Z,42.25
2023-05-24T01:55:30.180Z,48.00
2023-05-24T01:58:37.859Z,41.67
2023-05-24T02:01:42.093Z,50.25
2023-05-24T02:04:45.781Z,54.50
2023-05-24T02:07:49.378Z,51.25
2023-05-24T02:10:53.243Z,45.00
2023-05-24T02:13:58.117Z,47.00
2023-05-24T02:17:02.998Z,40.00
2023-05-24T02:20:08.065Z,49.00
2023-05-24T02:23:11.570Z,53.00
2023-05-24T02:26:15.046Z,51.00
2023-05-24T02:29:19.906Z,49.33
2023-05-24T02:32:23.398Z,40.25
2023-05-24T02:35:27.183Z,46.50
2023-05-24T02:38:32.019Z,39.50
2023-05-24T02:41:35.337Z,45.75
2023-05-24T02:44:40.423Z,40.00
2023-05-24T02:47:43.992Z,38.00
2023-05-24T02:50:47.604Z,33.00
2023-05-24T02:53:51.055Z,35.33
2023-05-24T02:56:56.784Z,37.00
2023-05-24T03:00:02.584Z,43.67
2023-05-24T03:03:08.983Z,27.33
2023-05-24T03:06:14.224Z,26.00
2023-05-24T03:09:19.226Z,25.67
2023-05-24T03:12:23.342Z,17.00
2023-05-24T03:15:29.004Z,15.67
2023-05-24T03:18:32.497Z,11.00
2023-05-24T03:21:36.293Z,16.67
2023-05-24T03:24:40.296Z,18.00
2023-05-24T03:27:44.551Z,9.67
2023-05-24T03:30:50.698Z,13.67
2023-05-24T03:33:55.536Z,14.33
2023-05-24T03:36:59.517Z,19.00
2023-05-24T03:40:04.883Z,17.33
2023-05-24T03:43:20.542Z,13.67
2023-05-24T03:46:35.139Z,18.67
2023-05-24T03:49:38.956Z,16.67
2023-05-24T03:52:43.874Z,12.00
2023-05-24T03:55:47.505Z,1.00
2023-05-24T03:58:52.487Z,6.00
2023-05-24T04:01:57.760Z,5.33
2023-05-24T04:05:01.883Z,4.00
2023-05-24T04:08:05.789Z,6.67
2023-05-24T04:11:09.507Z,3.33
2023-05-24T04:14:14.267Z,0.67
2023-05-24T04:17:19.541Z,0.00
2023-05-24T04:20:31.340Z,5.00
2023-05-24T04:23:35.059Z,3.00
2023-05-24T04:26:38.877Z,1.00
2023-05-24T04:29:43.410Z,3.00
2023-05-24T04:32:48.851Z,0.00
2023-05-24T04:35:53.400Z,0.67
2023-05-24T04:39:02.996Z,4.33
2023-05-24T04:42:09.984Z,0.33
2023-05-24T04:45:13.778Z,3.00
2023-05-24T04:48:19.736Z,10.67
2023-05-24T04:51:23.659Z,6.67
2023-05-24T04:54:27.687Z,0.00
2023-05-24T04:57:31.291Z,0.00
2023-05-24T05:00:37.383Z,0.00
2023-05-24T05:03:43.412Z,0.75
2023-05-24T05:06:48.393Z,0.33
2023-05-24T05:09:52.112Z,0.00
2023-05-24T05:12:55.733Z,1.00
2023-05-24T05:15:59.385Z,1.00
2023-05-24T05:19:06.336Z,0.00
2023-05-24T05:22:12.306Z,0.00
2023-05-24T05:25:15.986Z,1.50
2023-05-24T05:28:19.661Z,1.00
2023-05-24T05:31:23.561Z,1.25
2023-05-24T05:34:28.681Z,0.00
2023-05-24T05:37:32.302Z,2.33
2023-05-24T05:40:36.044Z,1.50
2023-05-24T05:43:40.606Z,0.25
2023-05-24T05:46:46.558Z,0.67
2023-05-24T05:49:51.683Z,0.00
2023-05-24T05:52:55.765Z,0.00
2023-05-24T05:55:59.438Z,0.75
2023-05-24T05:59:03.427Z,0.75
2023-05-24T06:02:08.795Z,0.00
2023-05-24T06:05:14.611Z,1.00
2023-05-24T06:08:19.623Z,1.00
2023-05-24T06:11:23.902Z,0.00
2023-05-24T06:14:27.724Z,2.50
2023-05-24T06:17:31.224Z,0.50
2023-05-24T06:20:37.086Z,1.75
2023-05-24T06:23:40.792Z,1.00
2023-05-24T06:26:44.605Z,0.25
2023-05-24T06:29:49.333Z,3.00
2023-05-24T06:32:53.178Z,0.75
2023-05-24T06:35:58.179Z,0.25
2023-05-24T06:39:01.795Z,0.25
2023-05-24T06:42:06.105Z,3.50
2023-05-24T06:45:14.286Z,1.50
2023-05-24T06:48:18.126Z,0.00
2023-05-24T06:51:23.221Z,1.00
2023-05-24T06:54:26.858Z,0.00
2023-05-24T06:57:30.452Z,0.25
2023-05-24T07:00:34.345Z,2.50
2023-05-24T07:03:38.589Z,4.00
2023-05-24T07:06:43.718Z,0.00
2023-05-24T07:09:47.662Z,0.00
2023-05-24T07:12:51.480Z,0.00
2023-05-24T07:15:55.114Z,0.25
2023-05-24T07:19:00.362Z,1.00
2023-05-24T07:22:06.645Z,0.25
2023-05-24T07:25:11.134Z,0.00
2023-05-24T07:28:18.364Z,1.00
2023-05-24T07:31:23.102Z,1.50
2023-05-24T07:34:30.065Z,3.00
2023-05-24T07:37:36.617Z,1.00
2023-05-24T07:40:40.430Z,1.00
2023-05-24T07:43:44.297Z,1.00
2023-05-24T07:46:48.280Z,1.00
2023-05-24T07:49:52.002Z,0.50
2023-05-24T07:52:57.861Z,9.25
2023-05-24T07:56:01.765Z,1.00
2023-05-24T07:59:05.408Z,6.00
2023-05-24T08:02:11.808Z,3.00
2023-05-24T08:05:15.427Z,4.00
2023-05-24T08:08:20.585Z,7.00
2023-05-24T08:11:24.404Z,2.50
2023-05-24T08:14:27.856Z,7.00
2023-05-24T08:17:32.107Z,3.25
2023-05-24T08:20:36.813Z,4.00
2023-05-24T08:23:41.755Z,3.00
2023-05-24T08:26:45.401Z,3.00
2023-05-24T08:29:48.878Z,3.25
2023-05-24T08:32:52.523Z,3.25
2023-05-24T08:35:56.066Z,3.00
2023-05-24T08:39:00.948Z,1.50
2023-05-24T08:42:09.681Z,1.00
2023-05-24T08:45:15.554Z,3.00
2023-05-24T08:48:21.042Z,6.00
2023-05-24T08:51:27.476Z,3.00
2023-05-24T08:54:32.845Z,4.00
2023-05-24T08:57:40.098Z,8.50
2023-05-24T09:00:43.847Z,6.00
2023-05-24T09:03:48.821Z,3.50
2023-05-24T09:06:54.219Z,6.00
2023-05-24T09:10:05.468Z,6.25
2023-05-24T09:13:10.283Z,16.00
2023-05-24T09:16:14.129Z,5.50
2023-05-24T09:19:18.338Z,6.00
2023-05-24T09:22:27.382Z,6.00
2023-05-24T09:25:32.474Z,10.25
2023-05-24T09:28:36.426Z,6.25
2023-05-24T09:31:48.305Z,8.50
2023-05-24T09:34:54.863Z,3.00
2023-05-24T09:38:00.110Z,0.75
2023-05-24T09:41:06.646Z,5.50
2023-05-24T09:44:19.188Z,8.75
2023-05-24T09:47:39.015Z,13.50
2023-05-24T09:51:05.720Z,7.00
2023-05-24T09:54:10.498Z,4.00
2023-05-24T09:57:30.181Z,7.75
2023-05-24T10:00:43.237Z,6.75
2023-05-24T10:03:54.471Z,6.75
2023-05-24T10:06:58.540Z,8.50
2023-05-24T10:10:02.963Z,6.75
2023-05-24T10:13:09.077Z,7.00
2023-05-24T10:16:13.020Z,9.75
2023-05-24T10:19:17.181Z,7.50
2023-05-24T10:22:23.733Z,7.00
2023-05-24T10:25:29.332Z,12.75
2023-05-24T10:28:37.266Z,8.50
2023-05-24T10:31:43.493Z,12.00
2023-05-24T10:34:49.202Z,9.00
2023-05-24T10:37:52.719Z,9.75
2023-05-24T10:40:56.610Z,10.00
2023-05-24T10:44:09.788Z,10.50
2023-05-24T10:47:15.656Z,10.00
2023-05-24T10:50:20.363Z,9.25
2023-05-24T10:53:27.477Z,9.50
2023-05-24T10:56:31.321Z,9.50
2023-05-24T10:59:41.311Z,17.50
2023-05-24T11:02:44.805Z,11.00
2023-05-24T11:05:55.565Z,8.00
2023-05-24T11:09:02.431Z,12.00
2023-05-24T11:12:09.255Z,7.50
2023-05-24T11:15:14.661Z,12.50
2023-05-24T11:18:20.598Z,9.67
2023-05-24T11:21:24.372Z,15.33
2023-05-24T11:24:30.421Z,8.67
2023-05-24T11:27:35.490Z,12.00
2023-05-24T11:30:42.854Z,8.33
2023-05-24T11:33:46.702Z,12.75
2023-05-24T11:36:50.670Z,13.00
2023-05-24T11:39:54.537Z,10.00
2023-05-24T11:43:01.873Z,7.00
2023-05-24T11:46:07.442Z,6.00
2023-05-24T11:49:14.944Z,8.33
2023-05-24T11:52:18.980Z,8.67
2023-05-24T11:55:26.013Z,14.33
2023-05-24T11:58:39.383Z,9.33
2023-05-24T12:01:44.959Z,6.33
2023-05-24T12:04:48.598Z,11.33
2023-05-24T12:08:04.882Z,16.00
2023-05-24T12:11:08.768Z,16.00
2023-05-24T12:14:18.263Z,13.67
2023-05-24T12:17:23.255Z,8.33
2023-05-24T12:20:29.832Z,13.00
2023-05-24T12:23:33.437Z,15.00
2023-05-24T12:26:38.135Z,12.00
2023-05-24T12:29:42.628Z,14.33
2023-05-24T12:32:48.419Z,6.33
2023-05-24T12:35:51.993Z,13.00
2023-05-24T12:38:58.696Z,12.00
2023-05-24T12:42:02.892Z,12.67
2023-05-24T12:45:07.385Z,14.33
2023-05-24T12:48:12.571Z,9.67
2023-05-24T12:51:15.997Z,13.00
2023-05-24T12:54:21.177Z,9.33
2023-05-24T12:57:24.669Z,13.33
2023-05-24T13:00:30.561Z,12.00
2023-05-24T13:03:37.709Z,10.67
2023-05-24T13:06:41.156Z,15.00
2023-05-24T13:09:44.640Z,9.67
2023-05-24T13:12:48.295Z,10.67
2023-05-24T13:15:52.205Z,9.33
2023-05-24T13:18:57.141Z,9.67
2023-05-24T13:22:00.622Z,7.33
2023-05-24T13:25:04.733Z,10.67
2023-05-24T13:28:08.511Z,9.00
2023-05-24T13:31:12.267Z,6.33
2023-05-24T13:34:18.927Z,4.00
2023-05-24T13:37:22.958Z,6.00
2023-05-24T13:40:26.603Z,9.00
2023-05-24T13:43:30.691Z,8.67
2023-05-24T13:46:36.817Z,12.33
2023-05-24T13:49:42.433Z,8.33
2023-05-24T13:52:46.163Z,8.67
2023-05-24T13:55:50.006Z,9.33
2023-05-24T13:58:53.827Z,13.00
2023-05-24T14:01:57.614Z,7.00
2023-05-24T14:05:21.624Z,6.00
2023-05-24T14:08:28.511Z,8.67
2023-05-24T14:11:32.845Z,7.00
2023-05-24T14:14:59.271Z,6.67
2023-05-24T14:18:08.239Z,6.00
2023-05-24T14:21:13.680Z,7.33
2023-05-24T14:24:17.271Z,2.33
2023-05-24T14:27:21.277Z,5.67
2023-05-24T14:30:24.743Z,4.00
2023-05-24T14:33:28.227Z,10.67
2023-05-24T14:36:33.823Z,5.00
2023-05-24T14:42:40.946Z,13.67
2023-05-24T14:45:44.938Z,7.00
2023-05-24T14:48:48.885Z,4.33
2023-05-24T14:51:53.954Z,8.00
2023-05-24T14:54:58.115Z,6.33
2023-05-24T14:58:01.762Z,6.00
2023-05-24T15:01:05.289Z,8.67
2023-05-24T15:04:09.325Z,7.00
2023-05-24T15:07:14.344Z,5.67
2023-05-24T15:10:18.195Z,8.33
2023-05-24T15:13:23.162Z,4.00
2023-05-24T15:16:27.011Z,8.67
2023-05-24T15:19:30.751Z,5.33
2023-05-24T15:22:36.047Z,7.00
2023-05-24T15:25:41.285Z,8.33
2023-05-24T15:28:45.168Z,5.33
2023-05-24T15:31:49.158Z,10.00
2023-05-24T15:34:53.079Z,8.00
2023-05-24T15:37:58.935Z,4.00
2023-05-24T15:41:03.969Z,8.00
2023-05-24T15:44:09.050Z,7.67
2023-05-24T15:47:13.101Z,6.33
2023-05-24T15:50:20.215Z,6.67
2023-05-24T15:53:28.688Z,11.33
2023-05-24T15:56:32.112Z,7.33
2023-05-24T15:59:38.881Z,8.00
2023-05-24T16:02:42.653Z,13.00
2023-05-24T16:05:48.841Z,11.33
2023-05-24T16:08:54.073Z,15.33
2023-05-24T16:11:57.888Z,8.00
2023-05-24T16:15:02.046Z,6.67
2023-05-24T16:18:07.227Z,7.00
2023-05-24T16:21:11.125Z,7.33
2023-05-24T16:24:16.165Z,6.67
2023-05-24T16:27:20.165Z,9.33
2023-05-24T16:30:24.074Z,10.00
2023-05-24T16:33:28.058Z,13.00
2023-05-24T16:36:31.937Z,10.67
2023-05-24T16:39:38.524Z,13.67
2023-05-24T16:42:42.265Z,31.00
2023-05-24T16:45:46.408Z,6.00
2023-05-24T16:48:50.105Z,30.00
2023-05-24T16:51:57.191Z,21.67
2023-05-24T16:55:02.237Z,13.33
2023-05-24T16:58:06.111Z,6.33
2023-05-24T17:01:10.082Z,18.25
2023-05-24T17:04:14.365Z,9.00
2023-05-24T17:07:17.951Z,11.00
2023-05-24T17:10:23.572Z,10.67
2023-05-24T17:13:28.635Z,14.33
2023-05-24T17:16:32.309Z,11.67
2023-05-24T17:19:36.748Z,18.33
2023-05-24T17:22:40.289Z,9.33
2023-05-24T17:25:46.348Z,13.00
2023-05-24T17:28:50.117Z,8.00
2023-05-24T17:31:53.817Z,13.00
2023-05-24T17:34:58.468Z,14.33
2023-05-24T17:38:08.872Z,23.33
2023-05-24T17:41:47.313Z,12.33
2023-05-24T17:44:51.551Z,9.33
2023-05-24T17:47:56.531Z,9.00
2023-05-24T17:51:01.037Z,15.67
2023-05-24T17:54:05.099Z,11.33
2023-05-24T17:57:10.361Z,17.33
2023-05-24T18:00:15.089Z,9.00
2023-05-24T18:03:26.414Z,6.00
2023-05-24T18:06:30.072Z,26.00
2023-05-24T18:09:33.621Z,27.25
2023-05-24T18:12:39.108Z,27.50
2023-05-24T18:15:45.180Z,23.00
2023-05-24T18:18:49.040Z,35.25
2023-05-24T18:21:53.527Z,41.75
2023-05-24T18:24:58.756Z,12.00
2023-05-24T18:28:04.070Z,29.00
2023-05-24T18:31:10.485Z,20.33
2023-05-24T18:34:13.978Z,14.67
2023-05-24T18:37:17.851Z,13.67
2023-05-24T18:40:23.569Z,15.67
2023-05-24T18:43:28.589Z,11.33
2023-05-24T18:46:33.392Z,15.33
2023-05-24T18:49:37.463Z,21.33
2023-05-24T18:52:41.735Z,15.33
2023-05-24T18:55:47.152Z,25.50
2023-05-24T18:58:53.959Z,10.67
2023-05-24T19:01:58.059Z,12.25
2023-05-24T19:05:01.531Z,11.33
2023-05-24T19:08:05.320Z,6.67
2023-05-24T19:11:11.184Z,17.33
2023-05-24T19:14:20.218Z,15.67
2023-05-24T19:17:27.066Z,17.33
2023-05-24T19:20:30.910Z,12.00
2023-05-24T19:23:34.761Z,14.00
2023-05-24T19:26:38.830Z,13.33
2023-05-24T19:29:43.686Z,38.00
2023-05-24T19:32:47.415Z,46.50
2023-05-24T19:35:51.757Z,22.50
2023-05-24T19:38:56.103Z,66.25
2023-05-24T19:41:59.867Z,39.50
2023-05-24T19:45:05.197Z,51.75
2023-05-24T19:48:10.113Z,59.00
2023-05-24T19:51:15.823Z,29.75
2023-05-24T19:54:19.721Z,28.50
2023-05-24T19:57:23.253Z,75.00
2023-05-24T20:00:28.519Z,78.00
2023-05-24T20:03:32.320Z,49.50
2023-05-24T20:06:38.867Z,36.25
2023-05-24T20:09:42.972Z,31.50
2023-05-24T20:12:46.866Z,73.50
2023-05-24T20:15:55.031Z,79.25
2023-05-24T20:18:59.713Z,49.75
2023-05-24T20:22:03.728Z,45.25
2023-05-24T20:25:09.087Z,47.00
2023-05-24T20:28:29.035Z,17.25
2023-05-24T20:31:38.004Z,26.00
2023-05-24T20:34:41.754Z,52.50
2023-05-24T20:37:45.541Z,28.00
2023-05-24T20:40:49.103Z,36.50
2023-05-24T20:43:53.057Z,32.00
2023-05-24T20:46:58.738Z,22.50
2023-05-24T20:50:02.455Z,18.75
2023-05-24T20:53:06.108Z,15.67
2023-05-24T20:56:13.642Z,18.00
2023-05-24T20:59:18.357Z,18.00
2023-05-24T21:02:23.737Z,13.67
2023-05-24T21:05:27.656Z,11.33
2023-05-24T21:08:32.074Z,16.00
2023-05-24T21:11:36.636Z,21.00
2023-05-24T21:14:40.938Z,52.25
2023-05-24T21:17:46.053Z,66.50
2023-05-24T21:20:50.172Z,152.25
2023-05-24T21:23:53.739Z,496.00
2023-05-24T21:26:57.248Z,131.75
2023-05-24T21:30:01.268Z,59.50
2023-05-24T21:33:07.744Z,18.00
2023-05-24T21:36:11.747Z,25.25
2023-05-24T21:39:15.607Z,38.25
2023-05-24T21:42:19.824Z,18.25
2023-05-24T21:45:23.419Z,12.50
2023-05-24T21:48:28.441Z,14.33
2023-05-24T21:51:32.150Z,12.00
2023-05-24T21:54:35.604Z,14.50
2023-05-24T21:57:39.095Z,14.00
2023-05-24T22:00:42.885Z,12.00
2023-05-24T22:03:48.127Z,20.00
2023-05-24T22:06:53.084Z,17.00
2023-05-24T22:09:56.762Z,10.67
2023-05-24T22:13:00.456Z,13.67
2023-05-24T22:16:04.169Z,9.33
2023-05-24T22:19:14.887Z,12.67
2023-05-24T22:22:20.487Z,13.67
2023-05-24T22:25:24.013Z,15.00
2023-05-24T22:28:27.568Z,16.75
2023-05-24T22:31:33.554Z,18.25
2023-05-24T22:34:38.814Z,11.00
2023-05-24T22:37:43.237Z,13.00
2023-05-24T22:40:47.446Z,10.50
2023-05-24T22:43:51.486Z,16.25
2023-05-24T22:46:57.255Z,16.00
2023-05-24T22:50:02.749Z,16.50
2023-05-24T22:53:09.374Z,20.50
2023-05-24T22:56:12.958Z,14.00
2023-05-24T22:59:16.561Z,15.75
2023-05-24T23:02:20.147Z,15.75
2023-05-24T23:05:25.468Z,16.25
2023-05-24T23:08:29.110Z,17.00
2023-05-24T23:11:33.053Z,12.50
2023-05-24T23:14:38.630Z,19.50
2023-05-24T23:17:42.137Z,16.50
2023-05-24T23:20:47.056Z,18.50
2023-05-24T23:23:53.684Z,24.50
2023-05-24T23:26:58.273Z,17.50
2023-05-24T23:30:01.904Z,20.50
2023-05-24T23:33:06.048Z,18.00
2023-05-24T23:36:11.376Z,18.75
2023-05-24T23:39:15.561Z,12.00
2023-05-24T23:42:19.564Z,21.25
2023-05-24T23:45:36.520Z,15.25
2023-05-24T23:48:42.528Z,18.00
2023-05-24T23:51:49.056Z,15.00
2023-05-24T23:54:52.967Z,16.50
2023-05-24T23:57:57.047Z,16.50
